Time;durP1;ratioP1;P1;durP2;ratioP2;P2;SDS_P1;SDS_P2;PMS_P1;PMS_P2;Temp;Humidity;BMP_temperature;BMP_pressure;BME280_temperature;BME280_humidity;BME280_pressure;Samples;Min_cycle;Max_cycle;Signal;HPM_P1;HPM_P2
2021/08/18 00:00:55;;;;;;;11.85;3.42;;;;;;;;;;2617498;54;20532;-69
2021/08/18 00:03:20;;;;;;;6.57;4.57;;;;;;;;;;2617353;54;20041;-68
2021/08/18 00:05:45;;;;;;;6.43;3.78;;;;;;;;;;2617315;54;20034;-68
2021/08/18 00:08:12;;;;;;;8.00;4.65;;;;;;;;;;2617319;54;20010;-68
2021/08/18 00:10:39;;;;;;;4.45;2.97;;;;;;;;;;2617803;39;20442;-68
2021/08/18 00:13:06;;;;;;;5.50;3.78;;;;;;;;;;2617588;54;20062;-68
2021/08/18 00:15:32;;;;;;;6.15;3.67;;;;;;;;;;2615547;54;20126;-69
2021/08/18 00:18:00;;;;;;;6.78;3.97;;;;;;;;;;2616396;54;20038;-68
2021/08/18 00:20:30;;;;;;;6.85;4.68;;;;;;;;;;2616218;54;20021;-69
2021/08/18 00:22:56;;;;;;;6.25;3.88;;;;;;;;;;2616472;54;20010;-68
2021/08/18 00:25:22;;;;;;;11.00;3.80;;;;;;;;;;2616053;54;20042;-69
2021/08/18 00:27:47;;;;;;;6.60;4.03;;;;;;;;;;2616691;47;20047;-68
2021/08/18 00:30:13;;;;;;;5.10;3.05;;;;;;;;;;2616340;54;20011;-69
2021/08/18 00:32:38;;;;;;;4.93;3.13;;;;;;;;;;2616278;54;20036;-70
2021/08/18 00:35:05;;;;;;;5.13;3.15;;;;;;;;;;2615713;47;20647;-70
2021/08/18 00:37:30;;;;;;;5.45;2.58;;;;;;;;;;2616355;54;20099;-70
2021/08/18 00:39:55;;;;;;;6.53;3.75;;;;;;;;;;2616573;54;20017;-70
2021/08/18 00:42:21;;;;;;;3.97;2.42;;;;;;;;;;2616083;54;20050;-70
2021/08/18 00:44:46;;;;;;;4.97;2.65;;;;;;;;;;2616126;54;20049;-70
2021/08/18 00:47:12;;;;;;;5.63;3.38;;;;;;;;;;2616517;54;20053;-70
2021/08/18 00:49:37;;;;;;;6.97;3.53;;;;;;;;;;2616081;54;20065;-70
2021/08/18 00:52:04;;;;;;;3.70;2.55;;;;;;;;;;2616565;54;20014;-70
2021/08/18 00:54:29;;;;;;;6.40;3.53;;;;;;;;;;2616052;54;20019;-69
2021/08/18 00:56:56;;;;;;;3.42;2.47;;;;;;;;;;2616548;54;20516;-69
2021/08/18 00:59:22;;;;;;;3.60;2.70;;;;;;;;;;2615991;54;20037;-69
2021/08/18 01:01:47;;;;;;;4.03;2.53;;;;;;;;;;2616414;54;20014;-69
2021/08/18 01:04:13;;;;;;;4.32;2.88;;;;;;;;;;2616284;54;20035;-69
2021/08/18 01:06:40;;;;;;;3.95;2.67;;;;;;;;;;2616207;54;20098;-69
2021/08/18 01:09:11;;;;;;;4.72;2.38;;;;;;;;;;2616114;54;20050;-69
2021/08/18 01:11:41;;;;;;;3.38;2.22;;;;;;;;;;2615651;54;20010;-62
2021/08/18 01:14:08;;;;;;;4.88;2.67;;;;;;;;;;2614992;54;20015;-62
2021/08/18 01:16:35;;;;;;;5.03;2.95;;;;;;;;;;2616673;39;20343;-62
2021/08/18 01:19:02;;;;;;;3.42;2.50;;;;;;;;;;2616379;54;20073;-62
2021/08/18 01:21:29;;;;;;;5.05;2.80;;;;;;;;;;2615969;54;20017;-61
2021/08/18 01:23:55;;;;;;;2.88;2.15;;;;;;;;;;2615996;47;20130;-62
2021/08/18 01:26:20;;;;;;;2.65;1.88;;;;;;;;;;2616095;54;20560;-62
2021/08/18 01:28:45;;;;;;;2.47;1.60;;;;;;;;;;2614469;54;20110;-62
2021/08/18 01:31:11;;;;;;;2.40;1.40;;;;;;;;;;2616203;54;20560;-61
2021/08/18 01:33:37;;;;;;;2.63;1.63;;;;;;;;;;2615733;54;20089;-62
2021/08/18 01:36:03;;;;;;;3.30;1.83;;;;;;;;;;2616098;54;20019;-62
2021/08/18 01:38:28;;;;;;;3.00;1.63;;;;;;;;;;2615737;54;20010;-61
2021/08/18 01:40:54;;;;;;;5.05;2.28;;;;;;;;;;2616228;54;20054;-62
2021/08/18 01:43:22;;;;;;;3.90;1.92;;;;;;;;;;2615612;54;20069;-62
2021/08/18 01:45:48;;;;;;;2.88;1.98;;;;;;;;;;2616149;54;20015;-62
2021/08/18 01:48:22;;;;;;;5.32;2.13;;;;;;;;;;2616101;54;20041;-62
2021/08/18 01:50:50;;;;;;;2.85;1.80;;;;;;;;;;2616146;54;20104;-62
2021/08/18 01:53:20;;;;;;;3.47;2.15;;;;;;;;;;2616062;54;20019;-61
2021/08/18 01:55:47;;;;;;;2.15;1.50;;;;;;;;;;2615746;47;20045;-62
2021/08/18 01:58:13;;;;;;;3.13;1.95;;;;;;;;;;2616153;54;20040;-61
2021/08/18 02:00:39;;;;;;;2.83;1.58;;;;;;;;;;2615931;54;20026;-62
2021/08/18 02:03:05;;;;;;;4.38;1.73;;;;;;;;;;2615913;54;20015;-62
2021/08/18 02:05:30;;;;;;;2.85;2.00;;;;;;;;;;2615615;54;20518;-62
2021/08/18 02:07:56;;;;;;;3.53;1.67;;;;;;;;;;2615859;54;20034;-62
2021/08/18 02:10:22;;;;;;;2.55;1.75;;;;;;;;;;2615870;54;20635;-61
2021/08/18 02:12:48;;;;;;;2.92;1.83;;;;;;;;;;2615527;54;20051;-63
2021/08/18 02:15:17;;;;;;;3.58;1.88;;;;;;;;;;2615054;54;20026;-63
2021/08/18 02:17:43;;;;;;;2.75;1.67;;;;;;;;;;2615441;54;20022;-62
2021/08/18 02:20:12;;;;;;;2.25;1.42;;;;;;;;;;2615776;54;20126;-63
2021/08/18 02:22:38;;;;;;;2.15;1.60;;;;;;;;;;2615898;54;20548;-63
2021/08/18 02:25:05;;;;;;;2.70;1.88;;;;;;;;;;2615987;54;20037;-63
2021/08/18 02:27:31;;;;;;;1.73;1.17;;;;;;;;;;2615933;54;20014;-63
2021/08/18 02:29:56;;;;;;;5.13;2.35;;;;;;;;;;2615945;54;20027;-63
2021/08/18 02:32:21;;;;;;;4.28;1.83;;;;;;;;;;2615875;54;20030;-63
2021/08/18 02:34:47;;;;;;;2.00;1.25;;;;;;;;;;2615843;54;20041;-62
2021/08/18 02:37:12;;;;;;;1.88;1.20;;;;;;;;;;2616047;39;20365;-63
2021/08/18 02:39:38;;;;;;;2.45;1.10;;;;;;;;;;2615255;54;20023;-63
2021/08/18 02:42:04;;;;;;;2.83;1.83;;;;;;;;;;2615992;54;20010;-62
2021/08/18 02:44:35;;;;;;;2.42;1.73;;;;;;;;;;2615711;54;20013;-62
2021/08/18 02:47:00;;;;;;;2.17;1.48;;;;;;;;;;2614006;54;20484;-63
2021/08/18 02:49:26;;;;;;;3.30;1.85;;;;;;;;;;2615631;54;20022;-62
2021/08/18 02:51:51;;;;;;;2.55;1.83;;;;;;;;;;2616022;54;20030;-63
2021/08/18 02:54:16;;;;;;;2.42;1.42;;;;;;;;;;2615609;54;20014;-62
2021/08/18 02:56:42;;;;;;;2.90;2.05;;;;;;;;;;2615357;54;20029;-62
2021/08/18 02:59:07;;;;;;;3.53;1.98;;;;;;;;;;2616326;39;20573;-63
2021/08/18 03:01:33;;;;;;;2.55;1.55;;;;;;;;;;2616044;54;20006;-63
2021/08/18 03:03:58;;;;;;;2.28;1.63;;;;;;;;;;2615803;54;20495;-63
2021/08/18 03:06:24;;;;;;;3.03;1.77;;;;;;;;;;2615396;54;20515;-63
2021/08/18 03:08:49;;;;;;;2.30;1.52;;;;;;;;;;2615854;54;20098;-63
2021/08/18 03:11:15;;;;;;;5.60;2.00;;;;;;;;;;2616037;47;20058;-63
2021/08/18 03:13:40;;;;;;;4.40;2.45;;;;;;;;;;2615862;39;20627;-63
2021/08/18 03:16:06;;;;;;;3.78;2.25;;;;;;;;;;2615779;54;20022;-63
2021/08/18 03:18:31;;;;;;;1.90;1.35;;;;;;;;;;2615843;54;20010;-63
2021/08/18 03:20:57;;;;;;;3.85;2.17;;;;;;;;;;2615083;54;20019;-63
2021/08/18 03:23:23;;;;;;;4.00;2.30;;;;;;;;;;2615248;54;20488;-63
2021/08/18 03:25:49;;;;;;;2.67;1.67;;;;;;;;;;2615731;54;20019;-61
2021/08/18 03:28:15;;;;;;;3.03;2.05;;;;;;;;;;2615979;54;20493;-61
2021/08/18 03:30:40;;;;;;;5.40;1.70;;;;;;;;;;2615708;54;20018;-61
2021/08/18 03:33:06;;;;;;;2.60;1.60;;;;;;;;;;2615637;54;20027;-61
2021/08/18 03:35:32;;;;;;;1.88;1.30;;;;;;;;;;2615525;54;20046;-61
2021/08/18 03:37:58;;;;;;;3.72;2.38;;;;;;;;;;2616349;39;20692;-61
2021/08/18 03:40:23;;;;;;;3.15;1.92;;;;;;;;;;2615574;54;20141;-62
2021/08/18 03:42:48;;;;;;;3.70;1.88;;;;;;;;;;2615775;54;20018;-61
2021/08/18 03:45:14;;;;;;;2.25;1.55;;;;;;;;;;2615471;54;20038;-62
2021/08/18 03:47:39;;;;;;;2.63;1.65;;;;;;;;;;2615632;54;20011;-62
2021/08/18 03:50:08;;;;;;;2.92;2.03;;;;;;;;;;2615231;54;20030;-62
2021/08/18 03:52:41;;;;;;;2.83;1.65;;;;;;;;;;2616429;54;20038;-62
2021/08/18 03:55:08;;;;;;;4.93;2.10;;;;;;;;;;2616367;54;20014;-62
2021/08/18 03:57:33;;;;;;;2.33;1.52;;;;;;;;;;2615529;54;20027;-62
2021/08/18 03:59:59;;;;;;;2.53;1.80;;;;;;;;;;2615856;54;20794;-62
2021/08/18 04:02:25;;;;;;;2.55;1.58;;;;;;;;;;2616382;54;20011;-62
2021/08/18 04:04:51;;;;;;;2.92;2.20;;;;;;;;;;2616789;39;20346;-62
2021/08/18 04:07:16;;;;;;;3.28;1.95;;;;;;;;;;2616420;54;20050;-62
2021/08/18 04:09:42;;;;;;;1.95;1.38;;;;;;;;;;2615543;54;20026;-62
2021/08/18 04:12:07;;;;;;;2.15;1.60;;;;;;;;;;2616666;47;20073;-62
2021/08/18 04:14:33;;;;;;;2.58;1.58;;;;;;;;;;2616087;54;20126;-63
2021/08/18 04:16:59;;;;;;;3.38;1.95;;;;;;;;;;2616917;39;20400;-62
2021/08/18 04:19:25;;;;;;;2.10;1.55;;;;;;;;;;2616347;54;20021;-60
2021/08/18 04:21:50;;;;;;;2.03;1.30;;;;;;;;;;2616160;54;20015;-63
2021/08/18 04:24:16;;;;;;;3.13;1.58;;;;;;;;;;2615702;54;20030;-63
2021/08/18 04:26:41;;;;;;;2.13;1.38;;;;;;;;;;2616358;54;20010;-63
2021/08/18 04:29:06;;;;;;;3.17;2.13;;;;;;;;;;2616473;54;20010;-60
2021/08/18 04:31:32;;;;;;;4.05;2.00;;;;;;;;;;2616288;54;20011;-61
2021/08/18 04:33:57;;;;;;;2.80;1.85;;;;;;;;;;2616140;54;20022;-61
2021/08/18 04:36:23;;;;;;;7.28;1.85;;;;;;;;;;2616296;39;20381;-62
2021/08/18 04:38:48;;;;;;;2.78;1.80;;;;;;;;;;2616845;39;20424;-62
2021/08/18 04:41:13;;;;;;;4.53;2.05;;;;;;;;;;2616413;54;20022;-63
2021/08/18 04:43:39;;;;;;;4.25;2.15;;;;;;;;;;2616186;54;20035;-62
2021/08/18 04:46:04;;;;;;;3.25;2.30;;;;;;;;;;2615132;54;20023;-63
2021/08/18 04:48:30;;;;;;;1.65;1.13;;;;;;;;;;2615526;54;20141;-63
2021/08/18 04:50:55;;;;;;;2.30;1.58;;;;;;;;;;2616460;54;20034;-63
2021/08/18 04:53:21;;;;;;;2.25;1.42;;;;;;;;;;2616333;54;20026;-61
2021/08/18 04:55:46;;;;;;;3.80;2.45;;;;;;;;;;2615966;54;20049;-63
2021/08/18 04:58:11;;;;;;;2.80;1.65;;;;;;;;;;2616449;54;20015;-61
2021/08/18 05:00:37;;;;;;;2.65;1.65;;;;;;;;;;2616317;54;20019;-64
2021/08/18 05:03:02;;;;;;;2.53;1.48;;;;;;;;;;2615714;54;20077;-61
2021/08/18 05:05:28;;;;;;;3.22;1.98;;;;;;;;;;2615283;54;20023;-63
2021/08/18 05:07:56;;;;;;;3.17;1.95;;;;;;;;;;2616025;54;20046;-63
2021/08/18 05:10:22;;;;;;;2.47;1.85;;;;;;;;;;2616044;54;20141;-63
2021/08/18 05:12:47;;;;;;;1.42;1.00;;;;;;;;;;2615866;54;20058;-63
2021/08/18 05:15:12;;;;;;;2.05;1.20;;;;;;;;;;2616034;54;20050;-63
2021/08/18 05:17:38;;;;;;;2.67;1.73;;;;;;;;;;2616160;54;21093;-62
2021/08/18 05:20:06;;;;;;;2.60;1.70;;;;;;;;;;2615536;54;20500;-63
2021/08/18 05:22:31;;;;;;;5.60;2.13;;;;;;;;;;2615828;39;20392;-63
2021/08/18 05:24:56;;;;;;;2.65;1.40;;;;;;;;;;2615829;54;20029;-64
2021/08/18 05:27:22;;;;;;;2.05;1.40;;;;;;;;;;2616234;54;20019;-63
2021/08/18 05:29:47;;;;;;;2.55;1.55;;;;;;;;;;2615798;54;20003;-63
2021/08/18 05:32:13;;;;;;;2.08;1.42;;;;;;;;;;2616273;54;20015;-63
2021/08/18 05:34:38;;;;;;;2.83;1.90;;;;;;;;;;2616018;54;20022;-63
2021/08/18 05:37:04;;;;;;;1.80;1.00;;;;;;;;;;2616020;54;20049;-63
2021/08/18 05:39:29;;;;;;;2.33;1.48;;;;;;;;;;2615606;54;20015;-62
2021/08/18 05:41:54;;;;;;;2.63;1.70;;;;;;;;;;2616119;54;20014;-63
2021/08/18 05:44:20;;;;;;;2.55;1.52;;;;;;;;;;2615617;54;20778;-63
2021/08/18 05:46:45;;;;;;;3.38;1.55;;;;;;;;;;2616016;54;20037;-63
2021/08/18 05:49:16;;;;;;;1.92;1.50;;;;;;;;;;2616001;54;20021;-63
2021/08/18 05:51:41;;;;;;;;;;;;;;;;;;2615800;54;20007;-63
2021/08/18 05:54:07;;;;;;;4.22;1.80;;;;;;;;;;2616052;47;19942;-63
2021/08/18 05:56:32;;;;;;;1.17;0.80;;;;;;;;;;2615750;54;20014;-63
2021/08/18 05:58:57;;;;;;;1.73;1.13;;;;;;;;;;2616313;54;20014;-63
2021/08/18 06:01:23;;;;;;;1.60;1.10;;;;;;;;;;2615639;54;20026;-63
2021/08/18 06:03:48;;;;;;;1.33;0.82;;;;;;;;;;2616503;39;20365;-63
2021/08/18 06:06:14;;;;;;;1.65;0.93;;;;;;;;;;2615954;54;20102;-63
2021/08/18 06:08:39;;;;;;;2.17;1.13;;;;;;;;;;2616033;54;20150;-63
2021/08/18 06:11:04;;;;;;;1.23;0.90;;;;;;;;;;2616131;39;20356;-63
2021/08/18 06:13:30;;;;;;;2.33;1.30;;;;;;;;;;2615582;54;20835;-63
2021/08/18 06:15:55;;;;;;;2.58;1.73;;;;;;;;;;2615908;54;20021;-62
2021/08/18 06:18:20;;;;;;;2.15;1.27;;;;;;;;;;2615659;54;20014;-62
2021/08/18 06:20:46;;;;;;;1.45;0.98;;;;;;;;;;2616359;39;20761;-63
2021/08/18 06:23:12;;;;;;;1.60;1.10;;;;;;;;;;2614515;54;20110;-63
2021/08/18 06:25:37;;;;;;;1.52;1.05;;;;;;;;;;2615452;54;20477;-63
2021/08/18 06:28:03;;;;;;;1.52;0.98;;;;;;;;;;2616774;31;20448;-63
2021/08/18 06:30:28;;;;;;;3.33;1.65;;;;;;;;;;2615604;54;20485;-63
2021/08/18 06:32:53;;;;;;;1.83;1.23;;;;;;;;;;2616239;39;20370;-63
2021/08/18 06:35:20;;;;;;;1.20;0.80;;;;;;;;;;2615810;54;20121;-63
2021/08/18 06:37:45;;;;;;;1.40;0.98;;;;;;;;;;2615790;39;20361;-63
2021/08/18 06:40:11;;;;;;;1.15;0.77;;;;;;;;;;2615541;54;20019;-62
2021/08/18 06:42:46;;;;;;;1.73;1.05;;;;;;;;;;2615631;47;20021;-63
2021/08/18 06:45:13;;;;;;;1.23;0.93;;;;;;;;;;2615743;39;20376;-62
2021/08/18 06:47:39;;;;;;;2.10;1.15;;;;;;;;;;2615618;54;20061;-62
2021/08/18 06:50:06;;;;;;;1.70;1.30;;;;;;;;;;2615763;54;20018;-63
2021/08/18 06:52:32;;;;;;;1.63;1.13;;;;;;;;;;2615820;54;20037;-62
2021/08/18 06:54:57;;;;;;;1.50;1.05;;;;;;;;;;2615570;54;20018;-62
2021/08/18 06:57:23;;;;;;;2.55;1.33;;;;;;;;;;2615592;54;20014;-62
2021/08/18 06:59:48;;;;;;;2.97;1.80;;;;;;;;;;2615457;54;20061;-63
2021/08/18 07:02:13;;;;;;;3.17;1.90;;;;;;;;;;2615634;54;20018;-63
2021/08/18 07:04:39;;;;;;;1.98;1.35;;;;;;;;;;2615425;54;20061;-64
2021/08/18 07:07:04;;;;;;;1.60;1.10;;;;;;;;;;2615178;54;20709;-63
2021/08/18 07:09:30;;;;;;;1.25;1.00;;;;;;;;;;2615343;51;20023;-63
2021/08/18 07:11:55;;;;;;;2.20;1.50;;;;;;;;;;2615836;39;20365;-63
2021/08/18 07:14:21;;;;;;;1.88;1.30;;;;;;;;;;2614262;54;20765;-64
2021/08/18 07:16:46;;;;;;;1.70;1.10;;;;;;;;;;2614568;54;20508;-63
2021/08/18 07:19:12;;;;;;;1.58;1.10;;;;;;;;;;2615744;54;20014;-64
2021/08/18 07:21:37;;;;;;;2.30;1.58;;;;;;;;;;2615988;54;20488;-64
2021/08/18 07:24:03;;;;;;;2.33;1.30;;;;;;;;;;2615773;54;20014;-64
2021/08/18 07:26:29;;;;;;;1.88;1.30;;;;;;;;;;2617082;31;20490;-64
2021/08/18 07:28:56;;;;;;;1.80;1.27;;;;;;;;;;2616263;54;20057;-64
2021/08/18 07:31:23;;;;;;;2.28;1.55;;;;;;;;;;2616340;54;20568;-63
2021/08/18 07:33:48;;;;;;;1.92;1.30;;;;;;;;;;2616681;54;20019;-63
2021/08/18 07:36:14;;;;;;;1.52;1.05;;;;;;;;;;2616324;54;20556;-62
2021/08/18 07:38:39;;;;;;;2.72;2.05;;;;;;;;;;2616436;54;20045;-63
2021/08/18 07:41:05;;;;;;;2.30;1.30;;;;;;;;;;2616756;54;20015;-63
2021/08/18 07:43:30;;;;;;;1.20;1.00;;;;;;;;;;2616164;39;20487;-63
2021/08/18 07:45:56;;;;;;;1.60;1.23;;;;;;;;;;2616536;54;20021;-63
2021/08/18 07:48:21;;;;;;;2.72;1.52;;;;;;;;;;2616465;54;20018;-63
2021/08/18 07:50:47;;;;;;;2.17;1.52;;;;;;;;;;2616457;54;20014;-63
2021/08/18 07:53:12;;;;;;;2.10;1.20;;;;;;;;;;2616439;54;20058;-63
2021/08/18 07:55:37;;;;;;;1.73;1.30;;;;;;;;;;2616305;54;20113;-63
2021/08/18 07:58:03;;;;;;;2.63;1.38;;;;;;;;;;2616712;54;20080;-63
2021/08/18 08:00:28;;;;;;;1.48;1.10;;;;;;;;;;2616922;31;20429;-63
2021/08/18 08:02:54;;;;;;;1.42;1.05;;;;;;;;;;2616308;54;20480;-64
2021/08/18 08:05:19;;;;;;;1.50;1.00;;;;;;;;;;2616571;54;20045;-63
2021/08/18 08:07:45;;;;;;;1.67;1.10;;;;;;;;;;2614368;54;20007;-63
2021/08/18 08:10:12;;;;;;;1.73;1.25;;;;;;;;;;2616597;54;20032;-63
2021/08/18 08:12:38;;;;;;;1.02;0.80;;;;;;;;;;2616661;39;20376;-63
2021/08/18 08:15:05;;;;;;;0.98;0.80;;;;;;;;;;2616337;54;20045;-63
2021/08/18 08:17:31;;;;;;;2.30;1.45;;;;;;;;;;2616331;54;20077;-63
2021/08/18 08:19:56;;;;;;;1.27;1.02;;;;;;;;;;2615199;47;20014;-63
2021/08/18 08:22:22;;;;;;;1.63;1.13;;;;;;;;;;2616412;54;20018;-63
2021/08/18 08:24:47;;;;;;;1.45;1.02;;;;;;;;;;2616442;54;20508;-63
2021/08/18 08:27:13;;;;;;;1.15;0.90;;;;;;;;;;2616094;54;20013;-63
2021/08/18 08:29:38;;;;;;;1.77;1.20;;;;;;;;;;2615520;54;20026;-64
2021/08/18 08:32:04;;;;;;;1.58;1.13;;;;;;;;;;2616134;54;20509;-64
2021/08/18 08:34:29;;;;;;;1.50;1.02;;;;;;;;;;2616476;54;20923;-63
2021/08/18 08:36:55;;;;;;;1.70;1.20;;;;;;;;;;2615909;54;20014;-63
2021/08/18 08:39:21;;;;;;;1.50;1.10;;;;;;;;;;2615996;54;20023;-62
2021/08/18 08:41:48;;;;;;;1.65;1.17;;;;;;;;;;2615872;54;20114;-63
2021/08/18 08:44:23;;;;;;;1.35;1.05;;;;;;;;;;2615550;54;20018;-62
2021/08/18 08:46:49;;;;;;;2.20;1.42;;;;;;;;;;2616341;54;20130;-62
2021/08/18 08:49:17;;;;;;;1.92;1.23;;;;;;;;;;2616363;54;20022;-63
2021/08/18 08:51:47;;;;;;;1.75;1.20;;;;;;;;;;2616297;54;20065;-62
2021/08/18 08:54:14;;;;;;;1.70;1.33;;;;;;;;;;2616279;54;20030;-64
2021/08/18 08:56:39;;;;;;;1.65;1.10;;;;;;;;;;2616065;54;20049;-63
2021/08/18 08:59:05;;;;;;;1.40;1.10;;;;;;;;;;2616369;54;20018;-63
2021/08/18 09:02:08;;;;;;;8.80;1.58;;;;;;;;;;2616132;54;20010;-62
2021/08/18 09:04:36;;;;;;;1.90;1.35;;;;;;;;;;2616315;54;20074;-63
2021/08/18 09:07:07;;;;;;;2.47;1.48;;;;;;;;;;2616004;54;20042;-63
2021/08/18 09:09:34;;;;;;;1.58;1.10;;;;;;;;;;2614557;54;20038;-62
2021/08/18 09:12:14;;;;;;;1.50;1.10;;;;;;;;;;2616756;39;20501;-63
2021/08/18 09:14:41;;;;;;;1.70;1.27;;;;;;;;;;2615397;54;20032;-63
2021/08/18 09:17:43;;;;;;;1.90;1.40;;;;;;;;;;2615547;39;20504;-63
2021/08/18 09:20:10;;;;;;;1.50;1.00;;;;;;;;;;2613771;47;20058;-64
2021/08/18 09:22:42;;;;;;;2.80;1.33;;;;;;;;;;2614717;54;20022;-63
2021/08/18 09:25:12;;;;;;;1.52;1.05;;;;;;;;;;2615143;54;20033;-63
2021/08/18 09:27:38;;;;;;;1.25;0.90;;;;;;;;;;2614949;54;20037;-62
2021/08/18 09:30:15;;;;;;;2.38;1.55;;;;;;;;;;2615358;54;20018;-62
2021/08/18 09:32:41;;;;;;;1.98;1.52;;;;;;;;;;2615004;54;20037;-63
2021/08/18 09:35:11;;;;;;;1.80;1.20;;;;;;;;;;2615836;54;20018;-63
2021/08/18 09:37:38;;;;;;;1.23;0.93;;;;;;;;;;2615370;54;20014;-63
2021/08/18 09:40:19;;;;;;;1.73;1.42;;;;;;;;;;2615410;54;20729;-63
2021/08/18 09:42:45;;;;;;;1.65;1.20;;;;;;;;;;2615304;54;20031;-62
2021/08/18 09:45:31;;;;;;;2.30;1.65;;;;;;;;;;2616077;54;20025;-63
2021/08/18 09:48:01;;;;;;;1.83;1.30;;;;;;;;;;2615252;54;20019;-63
2021/08/18 09:50:30;;;;;;;2.15;1.42;;;;;;;;;;2615877;54;20050;-62
2021/08/18 09:53:05;;;;;;;1.80;1.30;;;;;;;;;;2615573;39;20452;-62
2021/08/18 09:55:31;;;;;;;1.85;1.35;;;;;;;;;;2613965;54;20019;-62
2021/08/18 09:57:56;;;;;;;2.10;1.58;;;;;;;;;;2615031;54;20045;-62
2021/08/18 10:00:21;;;;;;;1.45;1.08;;;;;;;;;;2615988;54;20014;-63
2021/08/18 10:02:48;;;;;;;2.00;1.40;;;;;;;;;;2616198;54;20122;-62
2021/08/18 10:05:13;;;;;;;1.27;1.00;;;;;;;;;;2616055;54;20141;-62
2021/08/18 10:07:39;;;;;;;2.00;1.50;;;;;;;;;;2615893;54;20509;-62
2021/08/18 10:10:05;;;;;;;1.83;1.42;;;;;;;;;;2616075;54;20022;-62
2021/08/18 10:12:31;;;;;;;1.60;1.30;;;;;;;;;;2616428;39;20365;-61
2021/08/18 10:15:00;;;;;;;1.92;1.38;;;;;;;;;;2615907;54;20026;-62
2021/08/18 10:17:25;;;;;;;1.70;1.30;;;;;;;;;;2615320;54;20030;-62
2021/08/18 10:19:52;;;;;;;2.00;1.42;;;;;;;;;;2616158;54;20469;-62
2021/08/18 10:22:29;;;;;;;1.52;1.17;;;;;;;;;;2616153;54;20049;-63
2021/08/18 10:24:55;;;;;;;1.48;1.08;;;;;;;;;;2615800;54;20038;-62
2021/08/18 10:27:46;;;;;;;2.03;1.48;;;;;;;;;;2615891;54;20118;-62
2021/08/18 10:30:21;;;;;;;1.95;1.52;;;;;;;;;;2616056;54;20022;-62
2021/08/18 10:32:46;;;;;;;1.95;1.48;;;;;;;;;;2615864;54;20070;-63
2021/08/18 10:35:34;;;;;;;2.25;1.85;;;;;;;;;;2616168;54;20023;-63
2021/08/18 10:38:24;;;;;;;1.52;1.13;;;;;;;;;;2615858;54;20027;-62
2021/08/18 10:40:50;;;;;;;2.72;1.77;;;;;;;;;;2616144;54;20509;-63
2021/08/18 10:43:55;;;;;;;2.45;1.85;;;;;;;;;;2616198;54;20066;-63
2021/08/18 10:46:21;;;;;;;1.88;1.35;;;;;;;;;;2615707;54;20022;-62
2021/08/18 10:48:55;;;;;;;2.50;1.83;;;;;;;;;;2616049;54;20023;-62
2021/08/18 10:51:50;;;;;;;2.17;1.60;;;;;;;;;;2615986;54;20532;-62
2021/08/18 10:54:28;;;;;;;2.20;1.60;;;;;;;;;;2615617;54;20034;-62
2021/08/18 10:56:59;;;;;;;2.50;1.65;;;;;;;;;;2616229;39;20360;-62
2021/08/18 10:59:37;;;;;;;2.60;2.05;;;;;;;;;;2615780;54;20105;-62
2021/08/18 11:02:09;;;;;;;2.25;1.73;;;;;;;;;;2616199;54;20020;-62
2021/08/18 11:04:48;;;;;;;2.13;1.63;;;;;;;;;;2615597;54;20112;-62
2021/08/18 11:07:14;;;;;;;2.17;1.65;;;;;;;;;;2615960;54;20014;-62
2021/08/18 11:09:55;;;;;;;2.78;2.00;;;;;;;;;;2615810;54;20013;-61
2021/08/18 11:12:39;;;;;;;3.05;2.33;;;;;;;;;;2615848;54;20026;-61
2021/08/18 11:15:19;;;;;;;2.05;1.50;;;;;;;;;;2615677;54;20007;-61
2021/08/18 11:17:46;;;;;;;2.22;1.67;;;;;;;;;;2614733;54;20011;-61
2021/08/18 11:20:16;;;;;;;2.50;1.88;;;;;;;;;;2615346;54;20500;-62
2021/08/18 11:22:42;;;;;;;2.40;1.83;;;;;;;;;;2615783;54;20118;-62
2021/08/18 11:25:08;;;;;;;2.30;1.80;;;;;;;;;;2615789;54;20037;-62
2021/08/18 11:27:33;;;;;;;2.50;2.10;;;;;;;;;;2614697;54;20022;-61
2021/08/18 11:29:59;;;;;;;2.75;2.20;;;;;;;;;;2615813;54;20057;-61
2021/08/18 11:32:25;;;;;;;2.60;1.90;;;;;;;;;;2615633;54;20011;-61
2021/08/18 11:34:51;;;;;;;2.63;2.22;;;;;;;;;;2615879;54;20130;-62
2021/08/18 11:37:17;;;;;;;2.92;2.15;;;;;;;;;;2615637;54;20050;-62
2021/08/18 11:39:46;;;;;;;2.50;2.08;;;;;;;;;;2616352;31;20441;-61
2021/08/18 11:42:16;;;;;;;2.35;1.75;;;;;;;;;;2615807;54;20045;-62
2021/08/18 11:44:43;;;;;;;2.40;2.00;;;;;;;;;;2615661;54;20015;-61
2021/08/18 11:47:10;;;;;;;2.30;1.77;;;;;;;;;;2615336;54;20755;-61
2021/08/18 11:49:37;;;;;;;2.38;1.63;;;;;;;;;;2615623;54;20029;-61
2021/08/18 11:52:05;;;;;;;2.28;1.70;;;;;;;;;;2615683;54;20014;-61
2021/08/18 11:54:30;;;;;;;2.40;1.60;;;;;;;;;;2615431;54;20015;-61
2021/08/18 11:57:00;;;;;;;2.13;1.50;;;;;;;;;;2615735;54;20501;-61
2021/08/18 11:59:25;;;;;;;13.13;2.25;;;;;;;;;;2615601;54;20017;-61
2021/08/18 12:01:52;;;;;;;2.45;1.80;;;;;;;;;;2615618;39;20338;-62
2021/08/18 12:04:20;;;;;;;2.17;1.67;;;;;;;;;;2615445;54;20022;-62
2021/08/18 12:06:47;;;;;;;2.08;1.63;;;;;;;;;;2615675;54;20066;-61
2021/08/18 12:09:21;;;;;;;2.25;1.75;;;;;;;;;;2615180;54;20045;-62
2021/08/18 12:11:47;;;;;;;2.40;1.98;;;;;;;;;;2615909;54;20031;-61
2021/08/18 12:14:15;;;;;;;2.53;1.92;;;;;;;;;;2616210;54;20046;-62
2021/08/18 12:16:42;;;;;;;2.45;1.83;;;;;;;;;;2616940;39;20353;-61
2021/08/18 12:19:19;;;;;;;2.45;2.03;;;;;;;;;;2615372;46;20114;-62
2021/08/18 12:22:13;;;;;;;2.60;2.15;;;;;;;;;;2616343;54;20125;-61
2021/08/18 12:24:44;;;;;;;2.63;1.77;;;;;;;;;;2616364;54;20014;-61
2021/08/18 12:27:11;;;;;;;2.78;2.33;;;;;;;;;;2616169;54;20213;-62
2021/08/18 12:29:37;;;;;;;2.70;2.35;;;;;;;;;;2616368;54;20030;-62
2021/08/18 12:32:11;;;;;;;2.85;2.45;;;;;;;;;;2616254;39;20756;-62
2021/08/18 12:34:46;;;;;;;2.70;2.40;;;;;;;;;;2615444;54;20030;-62
2021/08/18 12:37:21;;;;;;;3.13;2.47;;;;;;;;;;2616334;54;20015;-62
2021/08/18 12:40:08;;;;;;;2.40;1.80;;;;;;;;;;2616233;54;20026;-62
2021/08/18 12:42:41;;;;;;;2.50;2.00;;;;;;;;;;2615446;54;20014;-62
2021/08/18 12:45:18;;;;;;;2.88;2.15;;;;;;;;;;2616310;54;20489;-62
2021/08/18 12:47:53;;;;;;;2.40;1.85;;;;;;;;;;2616107;54;20041;-62
2021/08/18 12:50:31;;;;;;;2.63;2.17;;;;;;;;;;2615950;54;20025;-62
2021/08/18 12:52:57;;;;;;;2.53;1.85;;;;;;;;;;2616507;54;20010;-61
2021/08/18 12:55:23;;;;;;;2.85;2.42;;;;;;;;;;2616547;39;20765;-62
2021/08/18 12:57:48;;;;;;;3.30;2.63;;;;;;;;;;2616063;54;20014;-62
2021/08/18 13:00:14;;;;;;;2.63;2.17;;;;;;;;;;2615677;54;20020;-62
2021/08/18 13:02:40;;;;;;;2.78;2.42;;;;;;;;;;2614092;54;20587;-61
2021/08/18 13:05:07;;;;;;;3.17;2.53;;;;;;;;;;2615954;54;20042;-61
2021/08/18 13:07:32;;;;;;;2.63;2.33;;;;;;;;;;2616075;54;20015;-62
2021/08/18 13:09:58;;;;;;;2.67;2.22;;;;;;;;;;2615921;54;20030;-61
2021/08/18 13:12:23;;;;;;;2.67;2.10;;;;;;;;;;2616069;54;20119;-62
2021/08/18 13:14:49;;;;;;;3.10;2.35;;;;;;;;;;2616054;54;20029;-62
2021/08/18 13:17:14;;;;;;;2.90;2.00;;;;;;;;;;2616708;54;20477;-61
2021/08/18 13:19:41;;;;;;;2.65;2.10;;;;;;;;;;2616203;54;20015;-61
2021/08/18 13:22:07;;;;;;;2.47;2.05;;;;;;;;;;2615944;54;20019;-61
2021/08/18 13:24:32;;;;;;;2.83;2.20;;;;;;;;;;2615862;54;20140;-61
2021/08/18 13:26:58;;;;;;;2.63;2.15;;;;;;;;;;2616131;54;20027;-61
2021/08/18 13:29:24;;;;;;;2.78;2.38;;;;;;;;;;2616099;54;20010;-62
2021/08/18 13:31:50;;;;;;;2.63;2.17;;;;;;;;;;2616101;54;20046;-62
2021/08/18 13:34:16;;;;;;;2.63;2.15;;;;;;;;;;2615930;54;20022;-62
2021/08/18 13:36:43;;;;;;;3.47;2.55;;;;;;;;;;2615478;54;20023;-62
2021/08/18 13:39:09;;;;;;;2.83;2.13;;;;;;;;;;2615836;54;20018;-61
2021/08/18 13:41:34;;;;;;;2.80;2.20;;;;;;;;;;2616388;54;20015;-61
2021/08/18 13:44:00;;;;;;;3.10;2.30;;;;;;;;;;2615894;54;20057;-62
2021/08/18 13:46:26;;;;;;;2.58;2.25;;;;;;;;;;2616094;54;20037;-61
2021/08/18 13:48:53;;;;;;;2.50;1.95;;;;;;;;;;2616196;54;20030;-62
2021/08/18 13:51:19;;;;;;;2.60;1.90;;;;;;;;;;2615196;54;20031;-61
2021/08/18 13:53:45;;;;;;;2.50;2.05;;;;;;;;;;2615984;54;20014;-62
2021/08/18 13:56:11;;;;;;;2.50;2.22;;;;;;;;;;2615886;54;20155;-61
2021/08/18 13:58:37;;;;;;;2.80;2.20;;;;;;;;;;2615725;54;20034;-62
2021/08/18 14:01:02;;;;;;;2.67;2.35;;;;;;;;;;2616014;54;20045;-62
2021/08/18 14:03:28;;;;;;;3.05;2.30;;;;;;;;;;2615825;54;20022;-61
2021/08/18 14:05:53;;;;;;;2.75;2.40;;;;;;;;;;2616215;54;20015;-62
2021/08/18 14:08:19;;;;;;;2.50;2.03;;;;;;;;;;2615930;54;20503;-62
2021/08/18 14:10:45;;;;;;;2.67;2.10;;;;;;;;;;2615938;54;20010;-62
2021/08/18 14:13:12;;;;;;;2.42;2.08;;;;;;;;;;2615919;54;20475;-62
2021/08/18 14:15:38;;;;;;;3.05;2.30;;;;;;;;;;2615316;54;20018;-62
2021/08/18 14:18:04;;;;;;;2.55;2.00;;;;;;;;;;2616028;54;20023;-62
2021/08/18 14:20:30;;;;;;;3.03;2.08;;;;;;;;;;2615737;54;20015;-62
2021/08/18 14:22:56;;;;;;;2.60;2.30;;;;;;;;;;2616319;54;20011;-62
2021/08/18 14:25:22;;;;;;;2.40;1.85;;;;;;;;;;2616085;54;20037;-62
2021/08/18 14:27:49;;;;;;;2.20;1.70;;;;;;;;;;2616004;54;20553;-62
2021/08/18 14:30:15;;;;;;;2.50;1.80;;;;;;;;;;2615853;54;20057;-62
2021/08/18 14:32:41;;;;;;;2.90;2.25;;;;;;;;;;2615285;54;20014;-62
2021/08/18 14:35:11;;;;;;;3.33;2.13;;;;;;;;;;2615544;54;20472;-62
2021/08/18 14:37:37;;;;;;;2.60;2.00;;;;;;;;;;2615761;54;20006;-62
2021/08/18 14:40:03;;;;;;;2.17;1.63;;;;;;;;;;2616020;54;20491;-63
2021/08/18 14:42:29;;;;;;;1.92;1.30;;;;;;;;;;2616188;54;20066;-62
2021/08/18 14:44:54;;;;;;;2.47;1.92;;;;;;;;;;2616189;54;20010;-62